createdAt,value
2018-11-07T00:00:07.209Z,10.80
2018-11-07T00:02:35.360Z,10.71
2018-11-07T00:05:03.395Z,10.69
2018-11-07T00:07:31.486Z,10.67
2018-11-07T00:09:59.614Z,10.66
2018-11-07T00:12:27.650Z,10.65
2018-11-07T00:14:55.730Z,10.66
2018-11-07T00:17:23.824Z,10.69
2018-11-07T00:19:51.895Z,10.73
2018-11-07T00:22:20.004Z,10.73
2018-11-07T00:24:48.095Z,10.70
2018-11-07T00:27:16.193Z,10.71
2018-11-07T00:29:44.302Z,10.74
2018-11-07T00:32:12.397Z,10.76
2018-11-07T00:34:40.517Z,10.78
2018-11-07T00:37:08.634Z,10.78
2018-11-07T00:39:36.736Z,10.76
2018-11-07T00:42:04.886Z,10.81
2018-11-07T00:44:32.970Z,10.69
2018-11-07T00:47:01.091Z,10.70
2018-11-07T00:49:29.229Z,10.57
2018-11-07T00:51:57.334Z,10.50
2018-11-07T00:54:25.502Z,10.55
2018-11-07T00:56:53.593Z,10.50
2018-11-07T00:59:21.749Z,10.44
2018-11-07T01:01:49.787Z,10.40
2018-11-07T01:04:17.881Z,10.39
2018-11-07T01:06:45.973Z,10.39
2018-11-07T01:09:14.077Z,10.38
2018-11-07T01:11:43.251Z,10.39
2018-11-07T01:14:11.535Z,10.42
2018-11-07T01:16:39.809Z,10.43
2018-11-07T01:19:08.394Z,10.43
2018-11-07T01:21:36.719Z,10.44
2018-11-07T01:24:04.956Z,10.44
2018-11-07T01:26:33.046Z,10.45
2018-11-07T01:29:01.267Z,10.46
2018-11-07T01:31:29.331Z,10.46
2018-11-07T01:33:57.476Z,10.46
2018-11-07T01:36:25.725Z,10.46
2018-11-07T01:38:53.825Z,10.46
2018-11-07T01:41:21.914Z,10.48
2018-11-07T01:43:50.032Z,10.48
2018-11-07T01:46:18.117Z,10.47
2018-11-07T01:48:46.205Z,10.46
2018-11-07T01:51:14.326Z,10.44
2018-11-07T01:53:42.449Z,10.43
2018-11-07T01:56:10.547Z,10.41
2018-11-07T01:58:38.661Z,10.33
2018-11-07T02:01:07.267Z,10.29
2018-11-07T02:03:35.366Z,10.25
2018-11-07T02:06:03.628Z,10.23
2018-11-07T02:08:32.294Z,10.21
2018-11-07T02:11:01.295Z,10.20
2018-11-07T02:13:29.567Z,10.15
2018-11-07T02:15:57.851Z,10.14
2018-11-07T02:18:25.970Z,10.06
2018-11-07T02:20:54.069Z,10.01
2018-11-07T02:23:22.137Z,9.96
2018-11-07T02:25:50.221Z,9.96
2018-11-07T02:28:18.511Z,9.92
2018-11-07T02:30:46.595Z,9.89
2018-11-07T02:33:14.661Z,9.88
2018-11-07T02:35:42.756Z,9.86
2018-11-07T02:38:10.825Z,9.83
2018-11-07T02:40:38.909Z,9.82
2018-11-07T02:43:06.990Z,9.80
2018-11-07T02:45:35.078Z,9.77
2018-11-07T02:48:03.146Z,9.75
2018-11-07T02:50:31.373Z,9.74
2018-11-07T02:52:59.490Z,9.75
2018-11-07T02:55:27.570Z,9.66
2018-11-07T02:57:55.659Z,9.63
2018-11-07T03:00:23.731Z,9.67
2018-11-07T03:02:51.818Z,9.76
2018-11-07T03:05:19.893Z,9.84
2018-11-07T03:07:47.984Z,9.90
2018-11-07T03:10:16.143Z,9.90
2018-11-07T03:12:44.162Z,9.92
2018-11-07T03:15:12.243Z,9.96
2018-11-07T03:17:40.334Z,9.93
2018-11-07T03:20:09.775Z,9.91
2018-11-07T03:22:37.899Z,9.95
2018-11-07T03:25:06.243Z,10.01
2018-11-07T03:27:34.516Z,10.08
2018-11-07T03:30:02.663Z,10.18
2018-11-07T03:32:30.843Z,10.24
2018-11-07T03:34:58.936Z,10.28
2018-11-07T03:37:27.055Z,10.31
2018-11-07T03:39:55.243Z,10.36
2018-11-07T03:42:23.263Z,10.39
2018-11-07T03:44:51.357Z,10.41
2018-11-07T03:47:19.541Z,10.42
2018-11-07T03:49:47.635Z,10.43
2018-11-07T03:52:15.773Z,10.46
2018-11-07T03:54:43.914Z,10.44
2018-11-07T03:57:12.033Z,10.39
2018-11-07T03:59:40.136Z,10.39
2018-11-07T04:02:08.229Z,10.42
2018-11-07T04:04:36.311Z,10.40
2018-11-07T04:07:04.432Z,10.39
2018-11-07T04:09:32.511Z,10.33
2018-11-07T04:12:00.597Z,10.30
2018-11-07T04:14:28.683Z,10.30
2018-11-07T04:16:56.803Z,10.29
2018-11-07T04:19:24.904Z,10.29
2018-11-07T04:21:52.991Z,10.17
2018-11-07T04:24:21.083Z,10.11
2018-11-07T04:26:49.231Z,10.04
2018-11-07T04:29:17.320Z,10.03
2018-11-07T04:31:45.396Z,10.01
2018-11-07T04:34:13.560Z,9.98
2018-11-07T04:36:41.639Z,10.00
2018-11-07T04:39:10.102Z,9.96
2018-11-07T04:41:38.130Z,10.00
2018-11-07T04:44:06.279Z,10.02
2018-11-07T04:46:34.359Z,10.07
2018-11-07T04:49:02.498Z,10.16
2018-11-07T04:51:30.567Z,10.09
2018-11-07T04:53:58.654Z,10.17
2018-11-07T04:56:26.749Z,10.06
2018-11-07T04:58:54.849Z,9.91
2018-11-07T05:01:22.936Z,9.86
2018-11-07T05:03:51.013Z,9.85
2018-11-07T05:06:19.089Z,9.88
2018-11-07T05:08:47.314Z,9.90
2018-11-07T05:11:15.284Z,9.95
2018-11-07T05:13:43.376Z,10.02
2018-11-07T05:16:11.461Z,10.01
2018-11-07T05:18:39.546Z,9.96
2018-11-07T05:21:07.734Z,9.95
2018-11-07T05:23:35.803Z,9.90
2018-11-07T05:26:03.915Z,9.91
2018-11-07T05:28:31.985Z,9.98
2018-11-07T05:31:00.085Z,10.02
2018-11-07T05:33:28.163Z,9.90
2018-11-07T05:35:56.245Z,9.86
2018-11-07T05:38:24.323Z,9.81
2018-11-07T05:40:52.856Z,9.82
2018-11-07T05:43:20.882Z,9.84
2018-11-07T05:45:48.969Z,9.90
2018-11-07T05:48:17.048Z,9.85
2018-11-07T05:50:45.129Z,9.88
2018-11-07T05:53:13.210Z,9.90
2018-11-07T05:55:41.294Z,9.89
2018-11-07T05:58:09.371Z,9.92
2018-11-07T06:00:37.458Z,9.85
2018-11-07T06:03:05.540Z,9.83
2018-11-07T06:05:33.618Z,9.73
2018-11-07T06:08:01.702Z,9.69
2018-11-07T06:10:29.802Z,9.65
2018-11-07T06:12:57.866Z,9.63
2018-11-07T06:15:26.041Z,9.65
2018-11-07T06:17:54.145Z,9.71
2018-11-07T06:20:22.243Z,9.68
2018-11-07T06:22:50.346Z,9.69
2018-11-07T06:25:18.434Z,9.66
2018-11-07T06:27:46.536Z,9.60
2018-11-07T06:30:14.621Z,9.63
2018-11-07T06:32:43.118Z,9.73
2018-11-07T06:35:11.697Z,9.66
2018-11-07T06:37:40.024Z,9.68
2018-11-07T06:40:09.515Z,9.72
2018-11-07T06:42:37.640Z,9.74
2018-11-07T06:45:06.246Z,9.83
2018-11-07T06:47:34.374Z,9.82
2018-11-07T06:50:02.464Z,9.82
2018-11-07T06:52:30.582Z,9.80
2018-11-07T06:54:58.713Z,9.79
2018-11-07T06:57:26.831Z,9.81
2018-11-07T06:59:54.924Z,9.88
2018-11-07T07:02:23.033Z,9.83
2018-11-07T07:04:51.120Z,9.84
2018-11-07T07:07:19.214Z,9.93
2018-11-07T07:09:47.365Z,10.00
2018-11-07T07:12:15.459Z,9.91
2018-11-07T07:14:43.567Z,9.91
2018-11-07T07:17:11.665Z,9.80
2018-11-07T07:19:39.754Z,9.81
2018-11-07T07:22:07.862Z,9.81
2018-11-07T07:24:35.956Z,9.85
2018-11-07T07:27:04.170Z,9.97
2018-11-07T07:29:32.252Z,9.87
2018-11-07T07:32:00.333Z,9.85
2018-11-07T07:34:28.482Z,9.95
2018-11-07T07:36:56.575Z,9.89
2018-11-07T07:39:24.669Z,9.97
2018-11-07T07:41:52.768Z,10.11
2018-11-07T07:44:20.958Z,10.00
2018-11-07T07:46:49.070Z,10.02
2018-11-07T07:49:17.194Z,10.12
2018-11-07T07:51:45.275Z,10.14
2018-11-07T07:54:13.443Z,10.08
2018-11-07T07:56:41.644Z,10.07
2018-11-07T07:59:09.750Z,9.91
2018-11-07T08:01:37.842Z,10.07
2018-11-07T08:04:05.953Z,10.09
2018-11-07T08:06:36.324Z,10.19
2018-11-07T08:09:06.881Z,10.25
2018-11-07T08:11:34.975Z,10.37
2018-11-07T08:14:03.151Z,10.42
2018-11-07T08:16:31.164Z,10.49
2018-11-07T08:18:59.284Z,10.41
2018-11-07T08:21:27.413Z,10.40
2018-11-07T08:23:55.461Z,10.37
2018-11-07T08:26:23.635Z,10.38
2018-11-07T08:28:51.719Z,10.38
2018-11-07T08:31:19.793Z,10.36
2018-11-07T08:33:47.873Z,10.41
2018-11-07T08:36:15.959Z,10.40
2018-11-07T08:38:44.229Z,10.42
2018-11-07T08:41:12.371Z,10.42
2018-11-07T08:43:40.453Z,10.50
2018-11-07T08:46:08.540Z,10.60
2018-11-07T08:48:36.620Z,10.51
2018-11-07T08:51:04.769Z,10.54
2018-11-07T08:53:32.922Z,10.62
2018-11-07T08:56:01.011Z,10.70
2018-11-07T08:58:29.088Z,10.73
2018-11-07T09:00:57.169Z,10.82
2018-11-07T09:03:25.246Z,10.86
2018-11-07T09:05:53.339Z,10.95
2018-11-07T09:08:21.479Z,11.06
2018-11-07T09:10:49.565Z,11.14
2018-11-07T09:13:17.647Z,11.23
2018-11-07T09:15:45.734Z,11.27
2018-11-07T09:18:13.816Z,11.27
2018-11-07T09:20:41.974Z,11.25
2018-11-07T09:23:10.205Z,11.28
2018-11-07T09:25:38.294Z,11.33
2018-11-07T09:28:06.473Z,11.32
2018-11-07T09:30:34.558Z,11.27
2018-11-07T09:33:02.635Z,11.22
2018-11-07T09:35:30.734Z,11.11
2018-11-07T09:37:59.018Z,11.02
2018-11-07T09:40:27.061Z,10.89
2018-11-07T09:42:55.147Z,10.84
2018-11-07T09:45:23.519Z,10.78
2018-11-07T09:47:51.607Z,10.81
2018-11-07T09:50:20.080Z,10.78
2018-11-07T09:52:48.292Z,10.86
2018-11-07T09:55:17.650Z,10.81
2018-11-07T09:57:45.825Z,10.92
2018-11-07T10:00:15.717Z,10.96
2018-11-07T10:02:44.391Z,11.01
2018-11-07T10:05:13.165Z,11.04
2018-11-07T10:07:41.609Z,11.13
2018-11-07T10:10:12.022Z,11.17
2018-11-07T10:12:40.590Z,11.21
2018-11-07T10:15:09.325Z,11.27
2018-11-07T10:17:37.437Z,11.32
2018-11-07T10:20:10.250Z,11.42
2018-11-07T10:22:38.560Z,11.53
2018-11-07T10:25:07.113Z,11.55
2018-11-07T10:27:35.506Z,11.59
2018-11-07T10:30:03.760Z,11.67
2018-11-07T10:32:31.627Z,11.83
2018-11-07T10:34:59.782Z,11.95
2018-11-07T10:37:32.462Z,11.96
2018-11-07T10:39:56.071Z,12.02
2018-11-07T10:42:24.087Z,12.13
2018-11-07T10:44:52.186Z,12.26
2018-11-07T10:47:20.273Z,12.32
2018-11-07T10:49:49.935Z,12.42
2018-11-07T10:52:18.032Z,12.52
2018-11-07T10:54:46.126Z,12.64
2018-11-07T10:57:14.393Z,12.73
2018-11-07T10:59:42.553Z,12.79
2018-11-07T11:02:15.928Z,12.91
2018-11-07T11:04:44.042Z,12.99
2018-11-07T11:07:12.178Z,13.09
2018-11-07T11:09:40.280Z,13.20
2018-11-07T11:12:08.719Z,13.35
2018-11-07T11:14:36.864Z,13.50
2018-11-07T11:17:05.379Z,13.52
2018-11-07T11:19:33.361Z,13.63
2018-11-07T11:22:01.454Z,13.72
2018-11-07T11:24:29.586Z,13.81
2018-11-07T11:26:57.698Z,13.83
2018-11-07T11:29:25.914Z,13.91
2018-11-07T11:31:53.954Z,13.96
2018-11-07T11:34:22.128Z,14.00
2018-11-07T11:36:50.139Z,14.08
2018-11-07T11:39:18.242Z,14.22
2018-11-07T11:41:46.327Z,14.20
2018-11-07T11:44:14.422Z,14.29
2018-11-07T11:46:42.670Z,14.35
2018-11-07T11:49:10.853Z,14.46
2018-11-07T11:51:38.866Z,14.48
2018-11-07T11:54:07.021Z,14.64
2018-11-07T11:56:35.163Z,14.71
2018-11-07T11:59:03.374Z,14.78
2018-11-07T12:01:31.380Z,14.92
2018-11-07T12:03:59.478Z,15.07
2018-11-07T12:06:27.647Z,15.18
2018-11-07T12:08:55.702Z,15.35
2018-11-07T12:11:23.799Z,15.50
2018-11-07T12:13:51.886Z,15.65
2018-11-07T12:16:19.999Z,15.78
2018-11-07T12:18:48.090Z,15.75
2018-11-07T12:21:16.247Z,15.87
2018-11-07T12:23:44.422Z,15.93
2018-11-07T12:26:12.516Z,15.87
2018-11-07T12:28:40.585Z,15.94
2018-11-07T12:31:08.667Z,15.94
2018-11-07T12:33:36.791Z,15.89
2018-11-07T12:36:05.209Z,15.95
2018-11-07T12:38:33.278Z,15.85
2018-11-07T12:41:01.368Z,15.82
2018-11-07T12:43:29.437Z,15.85
2018-11-07T12:45:57.531Z,15.86
2018-11-07T12:48:25.760Z,15.78
2018-11-07T12:50:53.848Z,15.80
2018-11-07T12:53:21.995Z,15.79
2018-11-07T12:55:50.077Z,15.79
2018-11-07T12:58:18.418Z,15.80
2018-11-07T13:00:46.243Z,15.81
2018-11-07T13:03:14.316Z,15.91
2018-11-07T13:05:42.406Z,15.82
2018-11-07T13:08:10.508Z,15.83
2018-11-07T13:10:38.584Z,15.87
2018-11-07T13:13:06.665Z,15.89
2018-11-07T13:15:34.898Z,15.95
2018-11-07T13:18:03.034Z,15.87
2018-11-07T13:20:31.106Z,15.94
2018-11-07T13:22:59.195Z,15.94
2018-11-07T13:25:27.288Z,15.92
2018-11-07T13:27:55.416Z,15.95
2018-11-07T13:30:23.916Z,15.97
2018-11-07T13:32:52.009Z,15.97
2018-11-07T13:35:20.569Z,15.99
2018-11-07T13:37:49.486Z,15.98
2018-11-07T13:40:19.786Z,15.98
2018-11-07T13:42:47.876Z,15.97
2018-11-07T13:45:17.171Z,15.98
2018-11-07T13:47:46.369Z,16.06
2018-11-07T13:50:14.945Z,16.08
2018-11-07T13:52:43.043Z,16.04
2018-11-07T13:55:11.908Z,15.99
2018-11-07T13:57:40.293Z,16.01
2018-11-07T14:00:10.198Z,15.98
2018-11-07T14:02:38.307Z,16.03
2018-11-07T14:05:08.429Z,16.05
2018-11-07T14:07:36.542Z,16.03
2018-11-07T14:10:06.113Z,16.00
2018-11-07T14:12:34.201Z,16.01
2018-11-07T14:15:02.301Z,16.05
2018-11-07T14:17:30.398Z,15.94
2018-11-07T14:19:58.503Z,15.94
2018-11-07T14:22:26.586Z,15.91
2018-11-07T14:24:54.674Z,15.84
2018-11-07T14:27:22.828Z,15.83
2018-11-07T14:29:51.458Z,15.77
2018-11-07T14:32:19.556Z,15.75
2018-11-07T14:34:47.647Z,15.70
2018-11-07T14:37:15.721Z,15.69
2018-11-07T14:39:43.809Z,15.68
2018-11-07T14:42:11.887Z,15.64
2018-11-07T14:44:39.972Z,15.61
2018-11-07T14:47:08.360Z,15.56
2018-11-07T14:49:36.475Z,15.54
2018-11-07T14:52:04.740Z,15.47
2018-11-07T14:54:32.830Z,15.43
2018-11-07T14:57:00.940Z,15.37
2018-11-07T14:59:29.027Z,15.42
2018-11-07T15:01:57.096Z,15.42
2018-11-07T15:04:25.296Z,15.35
2018-11-07T15:06:53.382Z,15.29
2018-11-07T15:09:21.462Z,15.23
2018-11-07T15:11:49.552Z,15.16
2018-11-07T15:14:17.617Z,15.10
2018-11-07T15:16:45.935Z,15.03
2018-11-07T15:19:14.571Z,14.97
2018-11-07T15:21:42.649Z,14.93
2018-11-07T15:24:10.760Z,14.86
2018-11-07T15:26:38.868Z,14.80
2018-11-07T15:29:06.938Z,14.73
2018-11-07T15:31:35.040Z,14.68
2018-11-07T15:34:03.112Z,14.62
2018-11-07T15:36:31.295Z,14.62
2018-11-07T15:38:59.301Z,14.57
2018-11-07T15:41:27.487Z,14.49
2018-11-07T15:43:55.594Z,14.41
2018-11-07T15:46:23.682Z,14.36
2018-11-07T15:48:51.783Z,14.28
2018-11-07T15:51:25.287Z,14.21
2018-11-07T15:53:53.406Z,14.14
2018-11-07T15:56:21.483Z,14.04
2018-11-07T15:58:49.566Z,13.99
2018-11-07T16:01:17.650Z,13.94
2018-11-07T16:03:49.394Z,13.90
2018-11-07T16:06:18.758Z,13.87
2018-11-07T16:08:46.807Z,13.83
2018-11-07T16:11:14.958Z,13.80
2018-11-07T16:13:43.144Z,13.75
2018-11-07T16:16:11.170Z,13.70
2018-11-07T16:18:39.313Z,13.66
2018-11-07T16:21:07.491Z,13.64
2018-11-07T16:23:35.590Z,13.62
2018-11-07T16:26:03.691Z,13.64
2018-11-07T16:28:31.989Z,13.54
2018-11-07T16:31:00.102Z,13.50
2018-11-07T16:33:28.188Z,13.46
2018-11-07T16:35:56.354Z,13.41
2018-11-07T16:38:24.476Z,13.36
2018-11-07T16:40:52.797Z,13.31
2018-11-07T16:43:20.643Z,13.29
2018-11-07T16:45:48.723Z,13.25
2018-11-07T16:48:17.017Z,13.32
2018-11-07T16:50:45.074Z,13.26
2018-11-07T16:53:13.164Z,13.14
2018-11-07T16:55:41.254Z,13.09
2018-11-07T16:58:09.357Z,13.11
2018-11-07T17:00:37.435Z,13.07
2018-11-07T17:03:05.747Z,13.12
2018-11-07T17:05:33.834Z,13.14
2018-11-07T17:08:01.923Z,12.99
2018-11-07T17:10:30.004Z,12.99
2018-11-07T17:12:58.100Z,12.94
2018-11-07T17:15:26.322Z,12.87
2018-11-07T17:17:54.420Z,12.83
2018-11-07T17:20:22.505Z,12.83
2018-11-07T17:22:50.578Z,12.77
2018-11-07T17:25:19.279Z,12.75
2018-11-07T17:27:47.564Z,12.76
2018-11-07T17:30:16.856Z,12.66
2018-11-07T17:32:44.948Z,12.68
2018-11-07T17:35:14.142Z,12.59
2018-11-07T17:37:42.651Z,12.53
2018-11-07T17:40:13.518Z,12.49
2018-11-07T17:42:41.603Z,12.44
2018-11-07T17:45:11.738Z,12.39
2018-11-07T17:47:40.444Z,12.33
2018-11-07T17:50:09.463Z,12.27
2018-11-07T17:52:37.687Z,12.23
2018-11-07T17:55:06.201Z,12.20
2018-11-07T17:57:34.303Z,12.17
2018-11-07T18:00:02.422Z,12.16
2018-11-07T18:02:30.506Z,12.14
2018-11-07T18:04:58.599Z,12.13
2018-11-07T18:07:26.684Z,12.12
2018-11-07T18:09:54.858Z,12.12
2018-11-07T18:12:22.872Z,12.12
2018-11-07T18:14:51.001Z,12.16
2018-11-07T18:17:19.197Z,12.19
2018-11-07T18:19:47.282Z,12.23
2018-11-07T18:22:15.364Z,12.27
2018-11-07T18:24:43.464Z,12.29
2018-11-07T18:27:11.593Z,12.32
2018-11-07T18:29:39.658Z,12.33
2018-11-07T18:32:07.799Z,12.36
2018-11-07T18:34:36.868Z,12.37
2018-11-07T18:37:05.665Z,12.38
2018-11-07T18:39:33.855Z,12.38
2018-11-07T18:42:01.981Z,12.35
2018-11-07T18:44:30.155Z,12.34
2018-11-07T18:46:58.218Z,12.35
2018-11-07T18:49:26.281Z,12.36
2018-11-07T18:51:54.379Z,12.37
2018-11-07T18:54:22.536Z,12.38
2018-11-07T18:56:50.646Z,12.38
2018-11-07T18:59:19.566Z,12.38
2018-11-07T19:01:47.668Z,12.38
2018-11-07T19:04:15.789Z,12.34
2018-11-07T19:06:44.067Z,12.33
2018-11-07T19:09:12.042Z,12.34
2018-11-07T19:11:40.139Z,12.36
2018-11-07T19:14:08.735Z,12.36
2018-11-07T19:16:36.890Z,12.33
2018-11-07T19:19:05.256Z,12.33
2018-11-07T19:21:33.355Z,12.32
2018-11-07T19:24:01.489Z,12.28
2018-11-07T19:26:29.581Z,12.24
2018-11-07T19:28:57.680Z,12.24
2018-11-07T19:31:25.765Z,12.16
2018-11-07T19:33:53.842Z,12.12
2018-11-07T19:36:21.930Z,12.12
2018-11-07T19:38:50.012Z,12.10
2018-11-07T19:41:18.404Z,12.10
2018-11-07T19:43:46.490Z,12.11
2018-11-07T19:46:14.584Z,12.13
2018-11-07T19:48:42.670Z,12.16
2018-11-07T19:51:10.748Z,12.20
2018-11-07T19:53:38.865Z,12.24
2018-11-07T19:56:06.919Z,12.28
2018-11-07T19:58:35.007Z,12.30
2018-11-07T20:01:03.094Z,12.33
2018-11-07T20:03:31.370Z,12.32
2018-11-07T20:05:59.465Z,12.30
2018-11-07T20:08:27.561Z,12.30
2018-11-07T20:10:55.679Z,12.31
2018-11-07T20:13:23.764Z,12.30
2018-11-07T20:15:51.839Z,12.27
2018-11-07T20:18:20.004Z,12.25
2018-11-07T20:20:48.092Z,12.23
2018-11-07T20:23:16.221Z,12.24
2018-11-07T20:25:44.283Z,12.30
2018-11-07T20:28:12.390Z,12.27
2018-11-07T20:30:40.474Z,12.32
2018-11-07T20:33:08.583Z,12.29
2018-11-07T20:35:36.744Z,12.26
2018-11-07T20:38:05.011Z,12.28
2018-11-07T20:40:33.130Z,12.31
2018-11-07T20:43:01.227Z,12.31
2018-11-07T20:45:29.365Z,12.34
2018-11-07T20:47:57.469Z,12.32
2018-11-07T20:50:25.568Z,12.30
2018-11-07T20:52:53.673Z,12.29
2018-11-07T20:55:21.777Z,12.27
2018-11-07T20:57:49.867Z,12.25
2018-11-07T21:00:21.648Z,12.21
2018-11-07T21:02:50.039Z,12.19
2018-11-07T21:05:18.147Z,12.19
2018-11-07T21:07:46.234Z,12.20
2018-11-07T21:10:17.176Z,12.21
2018-11-07T21:12:45.615Z,12.24
2018-11-07T21:15:14.897Z,12.26
2018-11-07T21:17:43.569Z,12.31
2018-11-07T21:20:11.674Z,12.34
2018-11-07T21:22:40.326Z,12.36
2018-11-07T21:25:08.492Z,12.39
2018-11-07T21:27:36.654Z,12.41
2018-11-07T21:30:06.614Z,12.41
2018-11-07T21:32:34.753Z,12.41
2018-11-07T21:35:02.999Z,12.39
2018-11-07T21:37:31.608Z,12.41
2018-11-07T21:39:59.702Z,12.41
2018-11-07T21:42:27.790Z,12.44
2018-11-07T21:44:55.911Z,12.45
2018-11-07T21:47:24.002Z,12.40
2018-11-07T21:49:52.124Z,12.34
2018-11-07T21:52:20.230Z,12.35
2018-11-07T21:54:48.444Z,12.36
2018-11-07T21:57:16.459Z,12.37
2018-11-07T21:59:44.560Z,12.37
2018-11-07T22:02:12.646Z,12.38
2018-11-07T22:04:40.742Z,12.35
2018-11-07T22:07:08.874Z,12.34
2018-11-07T22:09:36.978Z,12.32
2018-11-07T22:12:05.076Z,12.31
2018-11-07T22:14:33.167Z,12.32
2018-11-07T22:17:01.266Z,12.31
2018-11-07T22:19:29.383Z,12.32
2018-11-07T22:21:57.450Z,12.30
2018-11-07T22:24:25.545Z,12.28
2018-11-07T22:26:53.631Z,12.25
2018-11-07T22:29:21.708Z,12.23
2018-11-07T22:31:49.920Z,12.21
2018-11-07T22:34:18.000Z,12.20
2018-11-07T22:36:46.310Z,12.19
2018-11-07T22:39:14.675Z,12.21
2018-11-07T22:41:43.731Z,12.22
2018-11-07T22:44:11.661Z,12.22
2018-11-07T22:46:39.937Z,12.24
2018-11-07T22:49:08.076Z,12.24
2018-11-07T22:51:36.380Z,12.26
2018-11-07T22:54:04.847Z,12.27
2018-11-07T22:56:33.168Z,12.25
2018-11-07T22:59:01.245Z,12.26
2018-11-07T23:01:34.913Z,12.17
2018-11-07T23:04:03.104Z,12.13
2018-11-07T23:06:31.162Z,12.08
2018-11-07T23:08:59.286Z,12.07
2018-11-07T23:11:27.389Z,12.09
2018-11-07T23:13:55.529Z,12.16
2018-11-07T23:16:23.610Z,12.21
2018-11-07T23:18:51.701Z,12.15
2018-11-07T23:21:19.843Z,12.07
2018-11-07T23:23:47.955Z,12.06
2018-11-07T23:26:16.035Z,12.09
2018-11-07T23:28:44.154Z,12.11
2018-11-07T23:31:12.952Z,12.12
2018-11-07T23:33:40.979Z,12.13
2018-11-07T23:36:09.118Z,12.13
2018-11-07T23:38:37.215Z,12.16
2018-11-07T23:41:06.015Z,12.14
2018-11-07T23:43:34.116Z,12.12
2018-11-07T23:46:02.208Z,12.11
2018-11-07T23:48:30.329Z,12.07
2018-11-07T23:50:58.418Z,12.08
2018-11-07T23:53:26.525Z,12.03
2018-11-07T23:55:54.619Z,12.01
2018-11-07T23:58:22.786Z,11.97
